Budapest Bridge — VRIZ5 — position and weather

sailwx.info

Track history (hours):
 
Tides and Currents Weather Stations Pressure Air Temp Water Temp Dewpoint Dewpoint Depression Visibility Wind Speed Wind Dir Waves Ship Positions

Budapest Bridge

Last reported at 2018-Apr-26 01:30 UTC. Time now 2018-Apr-26 01:39 UTC.
Position N 36°55' W 076°20'.

Length 268 m; draft 10.4 m.

Type: Ship (hazmat cat D). MMSI: 477434200.

Date/timePositionNaut miles runAvg speedWind from/ knotsBaromVisibWave heightAir tempDewpointWater temp
2018-Apr-26 01:30N 36°55' W 076°20'0 0.1
2018-Apr-26 01:00N 36°54' W 076°20'0 0.1
2018-Apr-26 00:30N 36°55' W 076°20'0 0.0
2018-Apr-26 00:00N 36°55' W 076°20'0 0.0
2018-Apr-25 23:30N 36°55' W 076°20'0 0.0
2018-Apr-25 23:00N 36°55' W 076°20'0 0.0
2018-Apr-25 22:30N 36°55' W 076°20'0 0.0
2018-Apr-25 22:00N 36°55' W 076°20'0 0.0
2018-Apr-25 21:30N 36°55' W 076°20'1 2.2
2018-Apr-25 21:00N 36°55' W 076°20'4 6.7
2018-Apr-25 20:28N 36°59' W 076°20'5 9.4
2018-Apr-25 20:00N 37°00' W 076°14'916.7
2018-Apr-25 19:29N 36°58' W 076°04'612.0
2018-Apr-25 19:00N 36°56' W 075°57'4 8.3
2018-Apr-25 18:30N 36°54' W 075°53'5 9.3
2018-Apr-25 18:00N 36°51' W 075°48'4 8.9
2018-Apr-25 17:30N 36°49' W 075°43'7 1.9
2018-Apr-25 13:42N 36°53' W 075°36'0 0.6
2018-Apr-25 13:30N 36°53' W 075°36'7 4.8
2018-Apr-25 12:00N 36°48' W 075°30'86 7.2 170 / 151010.0 5.4 14.0 8.016.0
2018-Apr-25 00:00N 38°00' W 074°30'9412.7 100 / 151019.0 5.4 11.0-1.812.0
2018-Apr-24 16:35N 39°30' W 073°54'511.7
2018-Apr-24 16:09N 39°35' W 073°53'411.6
2018-Apr-24 15:49N 39°39' W 073°53'511.5
2018-Apr-24 15:24N 39°43' W 073°53'511.6
2018-Apr-24 15:00N 39°48' W 073°52'714.0
2018-Apr-24 14:30N 39°55' W 073°51'1018.8
2018-Apr-24 13:59N 40°05' W 073°50'713.8
2018-Apr-24 13:30N 40°11' W 073°50'5 9.6
2018-Apr-24 12:58N 40°17' W 073°49'4 9.6
2018-Apr-24 12:30N 40°21' W 073°49'510.3
2018-Apr-24 12:00N 40°26' W 073°48'4 8.4
2018-Apr-24 11:30N 40°29' W 073°53'5 9.8
2018-Apr-24 11:00N 40°31' W 073°59'5 9.4
2018-Apr-24 10:30N 40°35' W 074°02'4 8.9
2018-Apr-24 10:00N 40°39' W 074°04'4 7.7
2018-Apr-24 09:30N 40°39' W 074°09'2 3.0
2018-Apr-24 08:59N 40°40' W 074°08'0 0.0
2018-Apr-24 08:29N 40°40' W 074°08'0 0.0
2018-Apr-24 07:59N 40°40' W 074°08'0 0.0
2018-Apr-24 07:29N 40°40' W 074°08'0 0.1
2018-Apr-24 06:59N 40°40' W 074°08'0 0.0
2018-Apr-24 06:20N 40°40' W 074°08'0 0.0
2018-Apr-24 05:59N 40°40' W 074°08'0 0.0
2018-Apr-24 05:26N 40°40' W 074°08'0 0.0
2018-Apr-24 04:56N 40°40' W 074°08'0 0.0
2018-Apr-24 04:26N 40°40' W 074°08'0 0.0
2018-Apr-24 03:56N 40°40' W 074°08'0 0.0
2018-Apr-24 03:08N 40°40' W 074°08'0 0.0
2018-Apr-24 02:14N 40°40' W 074°08'0 0.0
2018-Apr-24 01:44N 40°40' W 074°08'0 0.0
2018-Apr-24 01:29N 40°40' W 074°08'0 0.0
2018-Apr-24 00:59N 40°40' W 074°08'0 0.0
2018-Apr-23 23:44N 40°40' W 074°08'0 0.0
2018-Apr-23 23:20N 40°40' W 074°08'0 0.0
2018-Apr-23 22:59N 40°40' W 074°08'0 0.0
2018-Apr-23 22:29N 40°40' W 074°08'0 0.0
2018-Apr-23 21:59N 40°40' W 074°08'0 0.0
2018-Apr-23 21:29N 40°40' W 074°08'0 0.0
2018-Apr-23 20:59N 40°40' W 074°08'0 0.0
2018-Apr-23 20:29N 40°40' W 074°08'0 0.0
2018-Apr-23 19:59N 40°40' W 074°08'0 0.0
2018-Apr-23 19:29N 40°40' W 074°08'0 0.0
2018-Apr-23 18:59N 40°40' W 074°08'0 0.0
2018-Apr-23 18:29N 40°40' W 074°08'0 0.0
2018-Apr-23 17:59N 40°40' W 074°08'0 0.0
2018-Apr-23 17:29N 40°40' W 074°08'0 0.0
2018-Apr-23 16:56N 40°40' W 074°08'0 0.0
2018-Apr-23 16:26N 40°40' W 074°08'0 0.0
2018-Apr-23 15:59N 40°40' W 074°08'0 0.0
2018-Apr-23 15:29N 40°40' W 074°08'0 0.0
2018-Apr-23 14:59N 40°40' W 074°08'0 0.0
2018-Apr-23 14:29N 40°40' W 074°08'0 0.0
2018-Apr-23 13:59N 40°40' W 074°08'0 0.0
2018-Apr-23 13:29N 40°40' W 074°08'0 0.0
2018-Apr-23 12:56N 40°40' W 074°08'0 0.0
2018-Apr-23 12:29N 40°40' W 074°08'0 0.0
2018-Apr-23 11:59N 40°40' W 074°08'0 0.0
2018-Apr-23 11:29N 40°40' W 074°08'0 0.0
2018-Apr-23 10:59N 40°40' W 074°08'0 0.0
2018-Apr-23 10:29N 40°40' W 074°08'0 0.0
2018-Apr-23 10:00N 40°40' W 074°08'2 3.3
2018-Apr-23 09:30N 40°39' W 074°09'3 6.4
2018-Apr-23 09:00N 40°39' W 074°05'5 8.3
2018-Apr-23 08:22N 40°34' W 074°02'3 9.4
2018-Apr-23 08:00N 40°31' W 073°60'5 9.8
2018-Apr-23 07:30N 40°29' W 073°54'21 8.8
2018-Apr-23 05:09N 40°28' W 073°27'316.8
2018-Apr-23 05:00N 40°28' W 073°23'713.5
2018-Apr-23 04:30N 40°29' W 073°15'  
2018-Apr-21 00:00N 44°12' W 063°00'71 6.0 200 / 201012.010.8 10.0-8.0 6.0
2018-Apr-20 12:00N 43°42' W 061°30'6711.2 240 / 221006.0 2.2 5.0-3.7 9.0
2018-Apr-20 06:00N 43°06' W 060°12'7212.1 150 / 271000.0 1.1 14.0 8.019.0
2018-Apr-20 00:00N 42°36' W 058°42'7612.6 160 / 231008.010.8 13.0 4.315.0
2018-Apr-19 18:00N 42°00' W 057°12'18215.1 140 / 341013.010.8 16.0 5.720.0
2018-Apr-19 06:00N 40°30' W 053°42'10417.3 140 / 411010.0 5.4 17.0 7.022.0
2018-Apr-19 00:00N 39°42' W 051°42'13222.0 230 / 261016.0 5.4 16.010.420.0
2018-Apr-18 18:00N 38°00' W 049°54'9115.1 140 / 371020.0 5.4 20.013.023.0
2018-Apr-18 12:00N 38°12' W 048°00'12020.1 060 / 241024.010.8 16.0 8.122.0
2018-Apr-18 06:00N 37°12' W 045°48'11218.6 170 / 291026.010.8 15.0 1.323.0
2018-Apr-18 00:00N 36°24' W 043°42'30617.0 310 / 241025.0 5.4 15.0-2.424.0
2018-Apr-17 06:00N 34°00' W 038°12'10417.4 200 / 281016.010.8 13.011.123.0
2018-Apr-17 00:00N 34°00' W 036°06'21417.9 280 / 261016.0 5.4 18.010.624.0
2018-Apr-16 12:00N 34°18' W 031°48'   310 / 291016.0 5.4 22.011.323.0
Track history (hours):
 
Tides and Currents Weather Stations Pressure Air Temp Water Temp Dewpoint Dewpoint Depression Visibility Wind Speed Wind Dir Waves Ship Positions

Budapest Bridge

Last reported at 2018-Apr-26 01:30 UTC. Time now 2018-Apr-26 01:39 UTC.
Position N 36°55' W 076°20'.

Length 268 m; draft 10.4 m.

Type: Ship (hazmat cat D). MMSI: 477434200.

Date/timePositionNaut miles runAvg speedWind from/ knotsBaromVisibWave heightAir tempDewpointWater temp
2018-Apr-26 01:30N 36°55' W 076°20'0 0.1
2018-Apr-26 01:00N 36°54' W 076°20'0 0.1
2018-Apr-26 00:30N 36°55' W 076°20'0 0.0
2018-Apr-26 00:00N 36°55' W 076°20'0 0.0
2018-Apr-25 23:30N 36°55' W 076°20'0 0.0
2018-Apr-25 23:00N 36°55' W 076°20'0 0.0
2018-Apr-25 22:30N 36°55' W 076°20'0 0.0
2018-Apr-25 22:00N 36°55' W 076°20'0 0.0
2018-Apr-25 21:30N 36°55' W 076°20'1 2.2
2018-Apr-25 21:00N 36°55' W 076°20'4 6.7
2018-Apr-25 20:28N 36°59' W 076°20'5 9.4
2018-Apr-25 20:00N 37°00' W 076°14'916.7
2018-Apr-25 19:29N 36°58' W 076°04'612.0
2018-Apr-25 19:00N 36°56' W 075°57'4 8.3
2018-Apr-25 18:30N 36°54' W 075°53'5 9.3
2018-Apr-25 18:00N 36°51' W 075°48'4 8.9
2018-Apr-25 17:30N 36°49' W 075°43'7 1.9
2018-Apr-25 13:42N 36°53' W 075°36'0 0.6
2018-Apr-25 13:30N 36°53' W 075°36'7 4.8
2018-Apr-25 12:00N 36°48' W 075°30'86 7.2 170 / 151010.0 5.4 14.0 8.016.0
2018-Apr-25 00:00N 38°00' W 074°30'9412.7 100 / 151019.0 5.4 11.0-1.812.0
2018-Apr-24 16:35N 39°30' W 073°54'511.7
2018-Apr-24 16:09N 39°35' W 073°53'411.6
2018-Apr-24 15:49N 39°39' W 073°53'511.5
2018-Apr-24 15:24N 39°43' W 073°53'511.6
2018-Apr-24 15:00N 39°48' W 073°52'714.0
2018-Apr-24 14:30N 39°55' W 073°51'1018.8
2018-Apr-24 13:59N 40°05' W 073°50'713.8
2018-Apr-24 13:30N 40°11' W 073°50'5 9.6
2018-Apr-24 12:58N 40°17' W 073°49'4 9.6
2018-Apr-24 12:30N 40°21' W 073°49'510.3
2018-Apr-24 12:00N 40°26' W 073°48'4 8.4
2018-Apr-24 11:30N 40°29' W 073°53'5 9.8
2018-Apr-24 11:00N 40°31' W 073°59'5 9.4
2018-Apr-24 10:30N 40°35' W 074°02'4 8.9
2018-Apr-24 10:00N 40°39' W 074°04'4 7.7
2018-Apr-24 09:30N 40°39' W 074°09'2 3.0
2018-Apr-24 08:59N 40°40' W 074°08'0 0.0
2018-Apr-24 08:29N 40°40' W 074°08'0 0.0
2018-Apr-24 07:59N 40°40' W 074°08'0 0.0
2018-Apr-24 07:29N 40°40' W 074°08'0 0.1
2018-Apr-24 06:59N 40°40' W 074°08'0 0.0
2018-Apr-24 06:20N 40°40' W 074°08'0 0.0
2018-Apr-24 05:59N 40°40' W 074°08'0 0.0
2018-Apr-24 05:26N 40°40' W 074°08'0 0.0
2018-Apr-24 04:56N 40°40' W 074°08'0 0.0
2018-Apr-24 04:26N 40°40' W 074°08'0 0.0
2018-Apr-24 03:56N 40°40' W 074°08'0 0.0
2018-Apr-24 03:08N 40°40' W 074°08'0 0.0
2018-Apr-24 02:14N 40°40' W 074°08'0 0.0
2018-Apr-24 01:44N 40°40' W 074°08'0 0.0
2018-Apr-24 01:29N 40°40' W 074°08'0 0.0
2018-Apr-24 00:59N 40°40' W 074°08'0 0.0
2018-Apr-23 23:44N 40°40' W 074°08'0 0.0
2018-Apr-23 23:20N 40°40' W 074°08'0 0.0
2018-Apr-23 22:59N 40°40' W 074°08'0 0.0
2018-Apr-23 22:29N 40°40' W 074°08'0 0.0
2018-Apr-23 21:59N 40°40' W 074°08'0 0.0
2018-Apr-23 21:29N 40°40' W 074°08'0 0.0
2018-Apr-23 20:59N 40°40' W 074°08'0 0.0
2018-Apr-23 20:29N 40°40' W 074°08'0 0.0
2018-Apr-23 19:59N 40°40' W 074°08'0 0.0
2018-Apr-23 19:29N 40°40' W 074°08'0 0.0
2018-Apr-23 18:59N 40°40' W 074°08'0 0.0
2018-Apr-23 18:29N 40°40' W 074°08'0 0.0
2018-Apr-23 17:59N 40°40' W 074°08'0 0.0
2018-Apr-23 17:29N 40°40' W 074°08'0 0.0
2018-Apr-23 16:56N 40°40' W 074°08'0 0.0
2018-Apr-23 16:26N 40°40' W 074°08'0 0.0
2018-Apr-23 15:59N 40°40' W 074°08'0 0.0
2018-Apr-23 15:29N 40°40' W 074°08'0 0.0
2018-Apr-23 14:59N 40°40' W 074°08'0 0.0
2018-Apr-23 14:29N 40°40' W 074°08'0 0.0
2018-Apr-23 13:59N 40°40' W 074°08'0 0.0
2018-Apr-23 13:29N 40°40' W 074°08'0 0.0
2018-Apr-23 12:56N 40°40' W 074°08'0 0.0
2018-Apr-23 12:29N 40°40' W 074°08'0 0.0
2018-Apr-23 11:59N 40°40' W 074°08'0 0.0
2018-Apr-23 11:29N 40°40' W 074°08'0 0.0
2018-Apr-23 10:59N 40°40' W 074°08'0 0.0
2018-Apr-23 10:29N 40°40' W 074°08'0 0.0
2018-Apr-23 10:00N 40°40' W 074°08'2 3.3
2018-Apr-23 09:30N 40°39' W 074°09'3 6.4
2018-Apr-23 09:00N 40°39' W 074°05'5 8.3
2018-Apr-23 08:22N 40°34' W 074°02'3 9.4
2018-Apr-23 08:00N 40°31' W 073°60'5 9.8
2018-Apr-23 07:30N 40°29' W 073°54'21 8.8
2018-Apr-23 05:09N 40°28' W 073°27'316.8
2018-Apr-23 05:00N 40°28' W 073°23'713.5
2018-Apr-23 04:30N 40°29' W 073°15'  
2018-Apr-21 00:00N 44°12' W 063°00'71 6.0 200 / 201012.010.8 10.0-8.0 6.0
2018-Apr-20 12:00N 43°42' W 061°30'6711.2 240 / 221006.0 2.2 5.0-3.7 9.0
2018-Apr-20 06:00N 43°06' W 060°12'7212.1 150 / 271000.0 1.1 14.0 8.019.0
2018-Apr-20 00:00N 42°36' W 058°42'7612.6 160 / 231008.010.8 13.0 4.315.0
2018-Apr-19 18:00N 42°00' W 057°12'18215.1 140 / 341013.010.8 16.0 5.720.0
2018-Apr-19 06:00N 40°30' W 053°42'10417.3 140 / 411010.0 5.4 17.0 7.022.0
2018-Apr-19 00:00N 39°42' W 051°42'13222.0 230 / 261016.0 5.4 16.010.420.0
2018-Apr-18 18:00N 38°00' W 049°54'9115.1 140 / 371020.0 5.4 20.013.023.0
2018-Apr-18 12:00N 38°12' W 048°00'12020.1 060 / 241024.010.8 16.0 8.122.0
2018-Apr-18 06:00N 37°12' W 045°48'11218.6 170 / 291026.010.8 15.0 1.323.0
2018-Apr-18 00:00N 36°24' W 043°42'30617.0 310 / 241025.0 5.4 15.0-2.424.0
2018-Apr-17 06:00N 34°00' W 038°12'10417.4 200 / 281016.010.8 13.011.123.0
2018-Apr-17 00:00N 34°00' W 036°06'21417.9 280 / 261016.0 5.4 18.010.624.0
2018-Apr-16 12:00N 34°18' W 031°48'   310 / 291016.0 5.4 22.011.323.0

Dump ship's entire track history